createdAt,value
2023-03-06T00:01:20.118Z,8.40
2023-03-06T00:06:16.965Z,8.65
2023-03-06T00:11:14.905Z,8.40
2023-03-06T00:16:13.002Z,8.35
2023-03-06T00:21:09.970Z,10.00
2023-03-06T00:26:08.000Z,8.95
2023-03-06T00:31:08.366Z,9.02
2023-03-06T00:36:07.290Z,8.80
2023-03-06T00:41:08.934Z,7.57
2023-03-06T00:46:06.031Z,8.30
2023-03-06T00:51:03.161Z,8.25
2023-03-06T00:56:00.711Z,8.65
2023-03-06T01:00:57.671Z,7.45
2023-03-06T01:05:54.633Z,6.40
2023-03-06T01:10:51.590Z,7.60
2023-03-06T01:15:49.151Z,8.13
2023-03-06T01:20:46.074Z,7.05
2023-03-06T01:25:42.897Z,8.05
2023-03-06T01:30:40.050Z,7.35
2023-03-06T01:35:38.849Z,6.90
2023-03-06T01:40:37.045Z,6.53
2023-03-06T01:46:12.087Z,6.90
2023-03-06T01:51:10.598Z,7.13
2023-03-06T01:56:09.041Z,6.40
2023-03-06T02:01:05.971Z,6.68
2023-03-06T02:06:02.762Z,6.20
2023-03-06T02:11:11.144Z,7.28
2023-03-06T02:16:09.349Z,7.10
2023-03-06T02:21:08.893Z,5.85
2023-03-06T02:26:08.456Z,5.53
2023-03-06T02:31:06.634Z,7.25
2023-03-06T02:36:10.553Z,5.60
2023-03-06T02:41:09.353Z,5.95
2023-03-06T02:46:07.087Z,5.70
2023-03-06T02:51:04.047Z,6.57
2023-03-06T02:56:02.610Z,6.25
2023-03-06T03:01:00.282Z,7.25
2023-03-06T03:05:58.384Z,6.70
2023-03-06T03:11:00.632Z,6.03
2023-03-06T03:16:05.640Z,6.00
2023-03-06T03:21:07.836Z,6.03
2023-03-06T03:26:08.689Z,6.47
2023-03-06T03:31:10.062Z,6.13
2023-03-06T03:36:08.068Z,6.43
2023-03-06T03:41:08.930Z,6.35
2023-03-06T03:46:07.247Z,6.55
2023-03-06T03:51:05.970Z,6.25
2023-03-06T03:56:06.101Z,5.70
2023-03-06T04:01:08.460Z,5.70
2023-03-06T04:06:07.210Z,5.50
2023-03-06T04:11:04.686Z,5.35
2023-03-06T04:16:02.517Z,5.65
2023-03-06T04:21:02.696Z,6.22
2023-03-06T04:26:00.917Z,7.10
2023-03-06T04:30:58.469Z,6.30
2023-03-06T04:35:56.497Z,6.47
2023-03-06T04:40:58.354Z,5.93
2023-03-06T04:45:55.383Z,6.50
2023-03-06T04:50:52.184Z,6.30
2023-03-06T04:55:49.037Z,7.18
2023-03-06T05:00:46.540Z,7.60
2023-03-06T05:05:43.592Z,6.45
2023-03-06T05:10:40.370Z,7.03
2023-03-06T05:15:39.389Z,6.93
2023-03-06T05:20:36.903Z,6.13
2023-03-06T05:25:34.040Z,7.38
2023-03-06T05:30:32.233Z,6.47
2023-03-06T05:35:29.312Z,6.70
2023-03-06T05:40:28.098Z,21.70
2023-03-06T05:45:25.072Z,7.93
2023-03-06T05:50:21.956Z,8.32
2023-03-06T05:55:23.545Z,7.22
2023-03-06T06:00:22.509Z,8.23
2023-03-06T06:05:20.411Z,8.52
2023-03-06T06:10:17.603Z,8.95
2023-03-06T06:15:14.808Z,9.70
2023-03-06T06:20:13.670Z,9.63
2023-03-06T06:25:10.515Z,8.73
2023-03-06T06:30:11.844Z,10.73
2023-03-06T06:35:14.160Z,10.35
2023-03-06T06:40:14.659Z,10.35
2023-03-06T06:45:12.220Z,10.63
2023-03-06T06:50:12.238Z,11.00
2023-03-06T06:55:10.521Z,10.00
2023-03-06T07:00:10.396Z,10.98
2023-03-06T07:05:08.079Z,10.10
2023-03-06T07:10:06.821Z,9.40
2023-03-06T07:15:04.647Z,10.52
2023-03-06T07:20:03.117Z,10.20
2023-03-06T07:25:00.112Z,11.60
2023-03-06T07:29:56.992Z,10.02
2023-03-06T07:35:02.727Z,10.50
2023-03-06T07:40:12.120Z,9.27
2023-03-06T07:45:09.882Z,10.43
2023-03-06T07:50:07.511Z,10.88
2023-03-06T07:55:05.120Z,10.20
2023-03-06T08:00:03.350Z,10.35
2023-03-06T08:05:12.607Z,11.18
2023-03-06T08:10:13.410Z,10.65
2023-03-06T08:15:12.825Z,11.70
2023-03-06T08:20:11.656Z,11.73
2023-03-06T08:25:12.680Z,11.70
2023-03-06T08:30:12.024Z,9.73
2023-03-06T08:35:09.264Z,10.57
2023-03-06T08:40:09.164Z,11.25
2023-03-06T08:45:07.531Z,11.68
2023-03-06T08:50:05.719Z,11.02
2023-03-06T08:55:04.943Z,10.57
2023-03-06T09:00:06.250Z,10.07
2023-03-06T09:05:05.314Z,9.85
2023-03-06T09:10:02.552Z,10.13
2023-03-06T09:14:59.634Z,11.23
2023-03-06T09:24:42.621Z,11.00
2023-03-06T09:29:43.587Z,10.10
2023-03-06T09:34:41.783Z,12.57
2023-03-06T09:39:40.570Z,10.65
2023-03-06T09:44:40.661Z,12.70
2023-03-06T09:49:47.709Z,10.13
2023-03-06T09:54:50.865Z,9.98
2023-03-06T09:59:54.184Z,12.60
2023-03-06T10:04:56.026Z,11.52
2023-03-06T10:10:07.945Z,12.75
2023-03-06T10:20:21.785Z,12.13
2023-03-06T10:25:25.454Z,12.60
2023-03-06T10:30:37.475Z,12.93
2023-03-06T10:35:45.689Z,13.32
2023-03-06T10:40:55.397Z,14.75
2023-03-06T10:45:53.701Z,14.27
2023-03-06T10:50:51.498Z,13.32
2023-03-06T10:55:56.407Z,13.38
2023-03-06T11:01:07.131Z,14.02
2023-03-06T11:06:13.474Z,15.48
2023-03-06T11:11:14.490Z,15.05
2023-03-06T11:16:25.122Z,15.40
2023-03-06T11:21:31.374Z,18.27
2023-03-06T11:26:43.296Z,17.15
2023-03-06T11:31:47.692Z,17.10
2023-03-06T11:36:58.821Z,15.63
2023-03-06T11:42:08.089Z,15.73
2023-03-06T11:47:17.362Z,11.90
2023-03-06T11:52:22.199Z,14.63
2023-03-06T11:57:32.970Z,16.60
2023-03-06T12:02:42.591Z,15.80
2023-03-06T12:07:53.523Z,14.98
2023-03-06T12:13:14.914Z,15.98
2023-03-06T12:18:28.153Z,14.95
2023-03-06T12:23:52.443Z,14.07
2023-03-06T12:29:06.285Z,14.15
2023-03-06T12:34:20.526Z,16.50
2023-03-06T12:39:25.474Z,14.98
2023-03-06T12:44:55.559Z,13.65
2023-03-06T12:49:57.081Z,14.32
2023-03-06T12:54:54.399Z,14.10
2023-03-06T12:59:52.473Z,14.48
2023-03-06T13:05:04.871Z,12.85
2023-03-06T13:10:16.694Z,11.40
2023-03-06T13:15:38.459Z,10.07
2023-03-06T13:20:42.931Z,12.35
2023-03-06T13:25:48.512Z,11.03
2023-03-06T13:30:48.267Z,9.15
2023-03-06T13:35:52.794Z,9.18
2023-03-06T13:40:49.688Z,9.67
2023-03-06T13:45:48.468Z,9.85
2023-03-06T13:50:46.828Z,8.45
2023-03-06T13:55:51.844Z,7.22
2023-03-06T14:01:17.003Z,7.90
2023-03-06T14:06:41.751Z,8.23
2023-03-06T14:11:45.700Z,8.02
2023-03-06T14:16:50.843Z,7.53
2023-03-06T14:21:54.374Z,8.32
2023-03-06T14:26:51.836Z,6.57
2023-03-06T14:31:54.136Z,8.65
2023-03-06T14:36:52.499Z,9.25
2023-03-06T14:41:49.452Z,7.57
2023-03-06T14:46:48.580Z,8.48
2023-03-06T14:51:48.397Z,7.55
2023-03-06T14:56:48.172Z,7.68
2023-03-06T15:01:48.453Z,7.05
2023-03-06T15:06:46.396Z,8.18
2023-03-06T15:11:58.490Z,8.00
2023-03-06T15:17:16.048Z,7.82
2023-03-06T15:22:26.916Z,9.05
2023-03-06T15:27:34.885Z,8.48
2023-03-06T15:32:35.065Z,7.32
2023-03-06T15:37:44.378Z,8.07
2023-03-06T15:42:42.746Z,7.90
2023-03-06T15:47:45.123Z,7.85
2023-03-06T15:52:43.000Z,6.85
2023-03-06T15:57:43.689Z,8.85
2023-03-06T16:02:43.431Z,7.10
2023-03-06T16:07:40.443Z,10.07
2023-03-06T16:12:38.215Z,10.55
2023-03-06T16:17:35.035Z,13.07
2023-03-06T16:22:31.937Z,10.85
2023-03-06T16:27:29.382Z,12.73
2023-03-06T16:32:28.851Z,12.23
2023-03-06T16:37:25.787Z,14.90
2023-03-06T16:42:25.600Z,13.02
2023-03-06T16:47:22.728Z,13.23
2023-03-06T16:52:34.691Z,12.77
2023-03-06T16:57:36.166Z,13.18
2023-03-06T17:02:40.335Z,22.33
2023-03-06T17:07:40.646Z,17.58
2023-03-06T17:12:37.839Z,18.48
2023-03-06T17:17:43.501Z,13.07
2023-03-06T17:22:45.410Z,24.17
2023-03-06T17:27:44.220Z,22.73
2023-03-06T17:32:41.432Z,19.65
2023-03-06T17:37:38.686Z,21.30
2023-03-06T17:42:36.928Z,22.65
2023-03-06T17:47:34.227Z,27.25
2023-03-06T17:52:31.315Z,24.35
2023-03-06T17:57:28.528Z,29.90
2023-03-06T18:02:28.560Z,28.38
2023-03-06T18:07:28.188Z,32.42
2023-03-06T18:12:25.386Z,34.13
2023-03-06T18:17:22.468Z,38.80
2023-03-06T18:22:20.366Z,35.70
2023-03-06T18:27:17.464Z,30.63
2023-03-06T18:32:14.402Z,33.08
2023-03-06T18:37:18.783Z,38.35
2023-03-06T18:42:19.428Z,41.63
2023-03-06T18:47:16.604Z,40.35
2023-03-06T18:52:17.035Z,40.33
2023-03-06T18:57:13.942Z,43.13
2023-03-06T19:02:17.475Z,40.13
2023-03-06T19:07:14.535Z,41.75
2023-03-06T19:12:11.592Z,41.28
2023-03-06T19:17:08.654Z,39.33
2023-03-06T19:22:07.529Z,35.80
2023-03-06T19:27:05.604Z,44.33
2023-03-06T19:32:02.809Z,40.13
2023-03-06T19:36:59.784Z,34.55
2023-03-06T19:41:57.602Z,28.55
2023-03-06T19:46:54.765Z,18.65
2023-03-06T19:51:51.796Z,14.65
2023-03-06T19:56:48.807Z,19.42
2023-03-06T20:01:46.614Z,16.08
2023-03-06T20:06:44.889Z,13.43
2023-03-06T20:11:42.186Z,13.88
2023-03-06T20:16:39.558Z,14.45
2023-03-06T20:21:38.121Z,13.35
2023-03-06T20:26:36.955Z,11.55
2023-03-06T20:31:33.893Z,10.43
2023-03-06T20:36:35.799Z,13.40
2023-03-06T20:41:33.345Z,15.23
2023-03-06T20:46:33.421Z,13.90
2023-03-06T20:51:31.768Z,14.18
2023-03-06T20:56:30.662Z,13.18
2023-03-06T21:01:31.042Z,11.02
2023-03-06T21:06:28.693Z,11.52
2023-03-06T21:11:29.948Z,10.73
2023-03-06T21:16:29.630Z,9.90
2023-03-06T21:21:28.819Z,9.52
2023-03-06T21:26:28.548Z,10.63
2023-03-06T21:31:26.438Z,10.10
2023-03-06T21:36:24.496Z,11.25
2023-03-06T21:41:24.137Z,9.88
2023-03-06T21:46:21.476Z,10.18
2023-03-06T21:51:19.941Z,11.05
2023-03-06T21:56:19.892Z,10.27
2023-03-06T22:01:19.106Z,9.43
2023-03-06T22:06:19.707Z,9.82
2023-03-06T22:11:18.878Z,9.10
2023-03-06T22:16:16.501Z,10.00
2023-03-06T22:21:15.280Z,10.20
2023-03-06T22:26:13.766Z,14.35
2023-03-06T22:31:13.184Z,13.93
2023-03-06T22:36:12.775Z,12.13
2023-03-06T22:41:11.008Z,14.00
2023-03-06T22:46:09.404Z,13.05
2023-03-06T22:51:09.843Z,11.13
2023-03-06T22:56:09.871Z,12.45
2023-03-06T23:01:07.990Z,13.68
2023-03-06T23:06:07.451Z,13.90
2023-03-06T23:11:09.323Z,14.98
2023-03-06T23:16:25.469Z,14.55
2023-03-06T23:26:56.785Z,14.90
2023-03-06T23:31:53.604Z,15.07
2023-03-06T23:36:51.129Z,14.27
2023-03-06T23:41:48.804Z,13.82
2023-03-06T23:46:45.600Z,14.30
2023-03-06T23:51:42.606Z,14.30
2023-03-06T23:56:40.206Z,12.07
